createdAt,value
2018-07-22T00:01:51.421Z,23.36
2018-07-22T00:06:53.599Z,23.40
2018-07-22T00:11:55.745Z,23.39
2018-07-22T00:16:57.898Z,23.39
2018-07-22T00:22:00.073Z,23.43
2018-07-22T00:27:02.227Z,23.45
2018-07-22T00:32:04.685Z,23.47
2018-07-22T00:37:06.873Z,23.58
2018-07-22T00:42:09.021Z,23.53
2018-07-22T00:47:11.182Z,23.42
2018-07-22T00:52:13.351Z,23.43
2018-07-22T00:57:15.509Z,23.58
2018-07-22T01:02:17.693Z,23.66
2018-07-22T01:07:19.829Z,23.57
2018-07-22T01:12:22.124Z,23.49
2018-07-22T01:17:24.296Z,23.49
2018-07-22T01:22:26.454Z,23.58
2018-07-22T01:27:28.575Z,23.70
2018-07-22T01:32:30.738Z,23.72
2018-07-22T01:37:32.959Z,23.69
2018-07-22T01:42:35.119Z,23.73
2018-07-22T01:47:37.279Z,23.74
2018-07-22T01:52:39.434Z,23.82
2018-07-22T01:57:41.545Z,23.81
2018-07-22T02:02:43.695Z,23.51
2018-07-22T02:07:45.799Z,23.83
2018-07-22T02:12:47.926Z,23.95
2018-07-22T02:17:50.046Z,23.95
2018-07-22T02:22:52.163Z,23.66
2018-07-22T02:27:54.311Z,23.59
2018-07-22T02:32:56.502Z,23.51
2018-07-22T02:37:58.631Z,23.45
2018-07-22T02:43:00.721Z,23.42
2018-07-22T02:48:02.899Z,23.47
2018-07-22T02:53:05.034Z,23.45
2018-07-22T02:58:07.173Z,23.25
2018-07-22T03:03:09.306Z,23.17
2018-07-22T03:08:11.421Z,23.25
2018-07-22T03:13:13.542Z,23.25
2018-07-22T03:18:15.659Z,23.16
2018-07-22T03:23:17.807Z,23.15
2018-07-22T03:28:19.939Z,22.97
2018-07-22T03:33:22.087Z,22.81
2018-07-22T03:38:24.245Z,22.69
2018-07-22T03:43:26.367Z,22.62
2018-07-22T03:48:28.514Z,22.54
2018-07-22T03:53:30.679Z,22.59
2018-07-22T03:58:32.808Z,22.70
2018-07-22T04:03:34.939Z,22.76
2018-07-22T04:08:37.083Z,22.62
2018-07-22T04:13:39.186Z,22.52
2018-07-22T04:18:45.860Z,22.49
2018-07-22T04:23:48.245Z,22.54
2018-07-22T04:28:50.839Z,22.65
2018-07-22T04:33:52.943Z,22.81
2018-07-22T04:38:55.066Z,22.86
2018-07-22T04:43:57.181Z,22.83
2018-07-22T04:48:59.351Z,22.79
2018-07-22T04:54:01.510Z,22.87
2018-07-22T04:59:03.657Z,22.92
2018-07-22T05:04:05.787Z,22.97
2018-07-22T05:09:09.419Z,22.95
2018-07-22T05:14:11.593Z,22.92
2018-07-22T05:19:13.735Z,22.99
2018-07-22T05:24:15.872Z,23.03
2018-07-22T05:29:18.020Z,23.08
2018-07-22T05:34:20.153Z,23.04
2018-07-22T05:39:22.298Z,23.15
2018-07-22T05:44:24.430Z,23.33
2018-07-22T05:49:26.623Z,23.48
2018-07-22T05:54:28.759Z,23.73
2018-07-22T05:59:30.885Z,23.92
2018-07-22T06:04:33.044Z,24.16
2018-07-22T06:09:35.240Z,24.43
2018-07-22T06:14:37.396Z,24.60
2018-07-22T06:19:39.545Z,24.66
2018-07-22T06:24:41.678Z,24.55
2018-07-22T06:29:43.859Z,24.82
2018-07-22T06:34:46.001Z,25.10
2018-07-22T06:39:48.136Z,25.22
2018-07-22T06:44:50.301Z,25.10
2018-07-22T06:49:52.506Z,25.02
2018-07-22T06:54:54.687Z,25.14
2018-07-22T06:59:56.856Z,25.14
2018-07-22T07:04:59.008Z,25.21
2018-07-22T07:10:01.361Z,25.32
2018-07-22T07:15:04.122Z,25.40
2018-07-22T07:20:06.309Z,25.29
2018-07-22T07:25:08.445Z,25.33
2018-07-22T07:30:10.635Z,24.98
2018-07-22T07:35:12.795Z,24.97
2018-07-22T07:40:14.969Z,25.26
2018-07-22T07:45:17.124Z,25.37
2018-07-22T07:50:19.347Z,25.48
2018-07-22T07:55:21.516Z,25.61
2018-07-22T08:00:23.707Z,25.75
2018-07-22T08:05:26.751Z,25.84
2018-07-22T08:10:28.935Z,25.89
2018-07-22T08:15:31.093Z,25.92
2018-07-22T08:20:33.272Z,26.08
2018-07-22T08:25:35.414Z,26.04
2018-07-22T08:30:37.594Z,26.11
2018-07-22T08:35:41.658Z,26.24
2018-07-22T08:40:43.909Z,26.35
2018-07-22T08:45:46.265Z,26.43
2018-07-22T08:50:48.474Z,26.49
2018-07-22T08:55:51.013Z,26.55
2018-07-22T09:00:53.639Z,26.78
2018-07-22T09:05:55.838Z,26.74
2018-07-22T09:10:58.040Z,26.95
2018-07-22T09:16:00.239Z,27.13
2018-07-22T09:21:02.382Z,27.09
2018-07-22T09:26:04.611Z,27.28
2018-07-22T09:31:07.054Z,27.36
2018-07-22T09:36:09.390Z,27.45
2018-07-22T09:41:11.495Z,27.41
2018-07-22T09:46:13.771Z,27.51
2018-07-22T09:51:15.969Z,27.57
2018-07-22T09:56:19.601Z,27.65
2018-07-22T10:01:21.896Z,27.68
2018-07-22T10:06:24.072Z,27.81
2018-07-22T10:11:26.264Z,27.81
2018-07-22T10:16:28.431Z,27.76
2018-07-22T10:21:30.608Z,27.86
2018-07-22T10:26:32.843Z,27.76
2018-07-22T10:31:35.237Z,27.86
2018-07-22T10:36:37.480Z,27.67
2018-07-22T10:41:39.908Z,27.64
2018-07-22T10:46:42.725Z,27.40
2018-07-22T10:51:44.955Z,27.76
2018-07-22T10:56:47.157Z,28.09
2018-07-22T11:01:49.478Z,27.99
2018-07-22T11:06:51.703Z,27.79
2018-07-22T11:11:53.911Z,27.60
2018-07-22T11:16:56.120Z,27.83
2018-07-22T11:21:58.377Z,27.86
2018-07-22T11:27:00.566Z,28.07
2018-07-22T11:32:02.766Z,27.92
2018-07-22T11:37:04.960Z,27.87
2018-07-22T11:42:07.177Z,27.83
2018-07-22T11:47:09.567Z,28.14
2018-07-22T11:52:11.831Z,28.41
2018-07-22T11:57:13.996Z,28.41
2018-07-22T12:02:16.147Z,28.73
2018-07-22T12:07:18.360Z,28.80
2018-07-22T12:12:20.550Z,28.93
2018-07-22T12:17:22.696Z,28.74
2018-07-22T12:22:24.860Z,28.51
2018-07-22T12:27:26.994Z,28.98
2018-07-22T12:32:29.386Z,28.70
2018-07-22T12:37:31.561Z,28.37
2018-07-22T12:42:33.759Z,28.71
2018-07-22T12:47:35.932Z,28.85
2018-07-22T12:52:38.167Z,28.90
2018-07-22T12:57:40.561Z,29.27
2018-07-22T13:02:42.723Z,29.73
2018-07-22T13:07:44.876Z,29.71
2018-07-22T13:12:47.230Z,29.63
2018-07-22T13:17:49.386Z,30.15
2018-07-22T13:22:51.606Z,30.25
2018-07-22T13:27:53.821Z,30.46
2018-07-22T13:32:56.143Z,30.71
2018-07-22T13:37:58.418Z,30.85
2018-07-22T13:43:01.875Z,31.00
2018-07-22T13:48:04.191Z,30.96
2018-07-22T13:53:06.420Z,30.98
2018-07-22T13:58:08.613Z,31.16
2018-07-22T14:03:10.798Z,30.92
2018-07-22T14:08:12.981Z,30.81
2018-07-22T14:13:15.159Z,30.80
2018-07-22T14:18:17.343Z,30.69
2018-07-22T14:23:19.497Z,30.79
2018-07-22T14:28:21.629Z,31.00
2018-07-22T14:33:23.786Z,30.94
2018-07-22T14:38:25.961Z,30.72
2018-07-22T14:43:28.135Z,30.96
2018-07-22T14:48:30.352Z,30.48
2018-07-22T14:53:32.578Z,30.56
2018-07-22T14:58:34.777Z,30.67
2018-07-22T15:03:36.972Z,30.66
2018-07-22T15:08:39.203Z,30.42
2018-07-22T15:13:41.413Z,30.49
2018-07-22T15:18:43.559Z,30.54
2018-07-22T15:23:45.727Z,30.63
2018-07-22T15:28:47.925Z,30.15
2018-07-22T15:33:50.131Z,30.10
2018-07-22T15:38:52.256Z,30.39
2018-07-22T15:43:54.615Z,30.26
2018-07-22T15:48:56.766Z,30.11
2018-07-22T15:53:59.034Z,29.98
2018-07-22T15:59:01.249Z,29.53
2018-07-22T16:04:04.569Z,29.38
2018-07-22T16:09:08.562Z,29.53
2018-07-22T16:14:10.965Z,29.38
2018-07-22T16:19:13.130Z,29.04
2018-07-22T16:24:15.282Z,28.88
2018-07-22T16:29:17.438Z,29.21
2018-07-22T16:34:19.669Z,28.89
2018-07-22T16:39:21.847Z,28.68
2018-07-22T16:44:24.037Z,28.78
2018-07-22T16:49:26.247Z,28.41
2018-07-22T16:54:28.503Z,28.06
2018-07-22T16:59:30.655Z,28.09
2018-07-22T17:04:32.793Z,28.11
2018-07-22T17:09:34.979Z,28.15
2018-07-22T17:14:37.171Z,27.99
2018-07-22T17:19:39.379Z,28.10
2018-07-22T17:24:41.570Z,28.24
2018-07-22T17:29:43.928Z,27.85
2018-07-22T17:34:46.091Z,27.97
2018-07-22T17:39:48.250Z,27.50
2018-07-22T17:44:50.412Z,26.99
2018-07-22T17:49:52.598Z,27.04
2018-07-22T17:54:54.850Z,26.76
2018-07-22T17:59:57.040Z,26.25
2018-07-22T18:04:59.216Z,26.06
2018-07-22T18:10:01.406Z,26.05
2018-07-22T18:15:03.937Z,25.91
2018-07-22T18:20:06.139Z,25.59
2018-07-22T18:25:08.343Z,25.26
2018-07-22T18:30:10.593Z,25.09
2018-07-22T18:35:12.779Z,24.99
2018-07-22T18:40:14.931Z,24.98
2018-07-22T18:45:17.079Z,25.01
2018-07-22T18:50:19.227Z,24.69
2018-07-22T18:55:21.483Z,24.35
2018-07-22T19:00:23.776Z,24.23
2018-07-22T19:05:26.156Z,24.01
2018-07-22T19:10:28.449Z,23.84
2018-07-22T19:15:30.668Z,23.98
2018-07-22T19:20:32.935Z,23.83
2018-07-22T19:25:35.132Z,23.71
2018-07-22T19:30:37.363Z,23.40
2018-07-22T19:35:39.578Z,23.26
2018-07-22T19:40:41.730Z,23.28
2018-07-22T19:45:44.057Z,23.34
2018-07-22T19:50:46.240Z,23.36
2018-07-22T19:55:48.449Z,23.36
2018-07-22T20:00:50.635Z,23.36
2018-07-22T20:05:52.848Z,23.31
2018-07-22T20:10:55.082Z,23.23
2018-07-22T20:15:57.286Z,23.29
2018-07-22T20:20:59.550Z,23.35
2018-07-22T20:26:01.753Z,23.28
2018-07-22T20:31:03.988Z,23.31
2018-07-22T20:36:06.194Z,23.36
2018-07-22T20:41:08.343Z,23.34
2018-07-22T20:46:10.548Z,23.11
2018-07-22T20:51:12.794Z,22.99
2018-07-22T20:56:15.024Z,22.70
2018-07-22T21:01:17.160Z,22.64
2018-07-22T21:06:19.335Z,22.46
2018-07-22T21:11:21.507Z,22.38
2018-07-22T21:16:23.707Z,22.39
2018-07-22T21:21:25.878Z,22.18
2018-07-22T21:26:28.066Z,22.23
2018-07-22T21:31:30.253Z,22.06
2018-07-22T21:36:32.441Z,22.00
2018-07-22T21:41:34.926Z,21.94
2018-07-22T21:46:37.211Z,22.04
2018-07-22T21:51:39.399Z,22.02
2018-07-22T21:56:41.642Z,22.05
2018-07-22T22:01:43.811Z,21.93
2018-07-22T22:06:46.024Z,21.82
2018-07-22T22:11:48.244Z,21.79
2018-07-22T22:16:50.617Z,21.69
2018-07-22T22:21:52.807Z,21.57
2018-07-22T22:26:54.986Z,21.55
2018-07-22T22:31:57.191Z,21.52
2018-07-22T22:36:59.391Z,21.52
2018-07-22T22:42:01.602Z,21.46
2018-07-22T22:47:03.868Z,21.30
2018-07-22T22:52:06.048Z,21.29
2018-07-22T22:57:08.243Z,21.29
2018-07-22T23:02:11.050Z,21.25
2018-07-22T23:07:13.204Z,21.15
2018-07-22T23:12:15.380Z,21.05
2018-07-22T23:17:17.543Z,21.09
2018-07-22T23:22:19.690Z,21.03
2018-07-22T23:27:21.899Z,20.94
2018-07-22T23:32:24.056Z,20.83
2018-07-22T23:37:26.208Z,20.76
2018-07-22T23:42:28.392Z,20.78
2018-07-22T23:47:30.924Z,20.82
2018-07-22T23:52:33.079Z,20.81
2018-07-22T23:57:35.331Z,20.69
